createdAt,value
2022-12-22T00:01:56.185Z,10.96
2022-12-22T00:07:16.151Z,11.01
2022-12-22T00:12:37.709Z,11.01
2022-12-22T00:17:57.338Z,10.77
2022-12-22T00:23:17.023Z,10.82
2022-12-22T00:28:37.018Z,10.87
2022-12-22T00:33:56.732Z,10.82
2022-12-22T00:39:17.032Z,10.75
2022-12-22T00:44:36.865Z,10.74
2022-12-22T00:50:06.491Z,10.73
2022-12-22T00:55:34.628Z,10.70
2022-12-22T01:00:54.573Z,10.75
2022-12-22T01:06:14.784Z,10.81
2022-12-22T01:11:35.074Z,10.85
2022-12-22T01:16:55.259Z,10.91
2022-12-22T01:22:15.840Z,10.97
2022-12-22T01:27:35.776Z,10.99
2022-12-22T01:32:56.075Z,11.04
2022-12-22T01:38:15.742Z,11.04
2022-12-22T01:43:41.285Z,11.03
2022-12-22T01:49:01.113Z,11.16
2022-12-22T01:54:21.480Z,11.16
2022-12-22T01:59:41.533Z,11.17
2022-12-22T02:05:05.640Z,11.23
2022-12-22T02:10:37.065Z,11.19
2022-12-22T02:16:34.740Z,11.21
2022-12-22T02:22:14.152Z,11.11
2022-12-22T02:27:35.956Z,11.16
2022-12-22T02:33:03.797Z,11.22
2022-12-22T02:38:41.740Z,11.15
2022-12-22T02:44:10.930Z,11.10
2022-12-22T02:49:40.752Z,11.18
2022-12-22T02:55:02.499Z,11.19
2022-12-22T03:00:24.750Z,11.19
2022-12-22T03:05:44.730Z,11.21
2022-12-22T03:11:04.846Z,11.13
2022-12-22T03:16:24.940Z,11.18
2022-12-22T03:21:45.044Z,11.11
2022-12-22T03:26:46.489Z,11.14
2022-12-22T03:31:48.027Z,11.07
2022-12-22T03:36:49.436Z,11.12
2022-12-22T03:42:11.103Z,11.12
2022-12-22T03:47:12.519Z,11.15
2022-12-22T03:52:14.005Z,11.13
2022-12-22T03:57:15.383Z,11.14
2022-12-22T04:02:16.843Z,11.20
2022-12-22T04:07:18.314Z,11.19
2022-12-22T04:12:38.096Z,11.18
2022-12-22T04:17:39.494Z,11.17
2022-12-22T04:22:40.881Z,11.24
2022-12-22T04:27:42.237Z,11.29
2022-12-22T04:32:43.685Z,11.30
2022-12-22T04:37:45.087Z,11.28
2022-12-22T04:42:46.447Z,11.26
2022-12-22T04:47:47.826Z,11.37
2022-12-22T04:52:49.255Z,11.37
2022-12-22T04:57:50.624Z,11.37
2022-12-22T05:02:52.936Z,11.44
2022-12-22T05:07:54.419Z,11.45
2022-12-22T05:12:56.340Z,11.42
2022-12-22T05:23:00.457Z,11.46
2022-12-22T05:28:01.927Z,11.45
2022-12-22T05:33:03.473Z,11.40
2022-12-22T05:38:04.857Z,11.38
2022-12-22T05:43:06.242Z,11.29
2022-12-22T05:48:07.685Z,11.22
2022-12-22T05:53:09.048Z,11.27
2022-12-22T05:58:10.429Z,11.23
2022-12-22T06:03:11.980Z,11.24
2022-12-22T06:08:13.561Z,11.22
2022-12-22T06:13:14.987Z,11.22
2022-12-22T06:18:16.950Z,11.21
2022-12-22T06:23:18.391Z,11.27
2022-12-22T06:28:19.750Z,11.26
2022-12-22T06:33:21.805Z,11.30
2022-12-22T06:38:23.144Z,11.44
2022-12-22T06:43:25.277Z,11.48
2022-12-22T06:48:26.613Z,11.43
2022-12-22T06:53:27.979Z,11.47
2022-12-22T06:58:29.351Z,11.53
2022-12-22T07:03:30.821Z,11.51
2022-12-22T07:08:32.349Z,11.55
2022-12-22T07:13:35.031Z,11.60
2022-12-22T07:18:41.473Z,11.59
2022-12-22T07:23:42.905Z,11.65
2022-12-22T07:28:44.382Z,11.71
2022-12-22T07:33:45.941Z,11.75
2022-12-22T07:38:50.114Z,11.80
2022-12-22T07:43:56.990Z,11.83
2022-12-22T07:49:17.110Z,11.81
2022-12-22T07:54:19.154Z,11.87
2022-12-22T07:59:20.771Z,11.89
2022-12-22T08:04:22.546Z,11.96
2022-12-22T08:09:24.084Z,11.96
2022-12-22T08:14:25.419Z,11.89
2022-12-22T08:19:26.893Z,11.92
2022-12-22T08:24:29.033Z,11.80
2022-12-22T08:29:38.393Z,11.75
2022-12-22T08:34:40.407Z,11.70
2022-12-22T08:39:44.459Z,11.74
2022-12-22T08:44:47.288Z,11.69
2022-12-22T08:49:49.929Z,11.70
2022-12-22T08:54:51.307Z,11.67
2022-12-22T08:59:52.674Z,11.68
2022-12-22T09:04:54.004Z,11.69
2022-12-22T09:09:57.369Z,11.78
2022-12-22T09:14:58.840Z,11.73
2022-12-22T09:20:00.307Z,11.77
2022-12-22T09:25:01.760Z,11.75
2022-12-22T09:30:03.535Z,11.77
2022-12-22T09:35:05.431Z,11.69
2022-12-22T09:40:07.391Z,11.59
2022-12-22T09:45:19.799Z,11.66
2022-12-22T09:50:26.314Z,11.67
2022-12-22T09:55:49.152Z,11.74
2022-12-22T10:01:06.446Z,11.77
2022-12-22T10:06:17.260Z,11.84
2022-12-22T10:11:18.861Z,11.81
2022-12-22T10:16:23.594Z,11.84
2022-12-22T10:21:26.188Z,11.84
2022-12-22T10:26:32.362Z,11.78
2022-12-22T10:31:37.094Z,11.77
2022-12-22T10:36:38.872Z,11.81
2022-12-22T10:41:45.212Z,11.93
2022-12-22T10:46:50.170Z,12.15
2022-12-22T10:52:10.773Z,12.21
2022-12-22T10:57:14.931Z,12.24
2022-12-22T11:02:27.077Z,12.35
2022-12-22T11:07:32.331Z,12.40
2022-12-22T11:12:47.285Z,12.36
2022-12-22T11:18:16.204Z,12.44
2022-12-22T11:23:48.094Z,12.57
2022-12-22T11:29:31.537Z,12.60
2022-12-22T11:34:48.371Z,12.56
2022-12-22T11:39:57.470Z,12.62
2022-12-22T11:45:16.528Z,12.64
2022-12-22T11:51:00.965Z,12.63
2022-12-22T11:56:23.613Z,12.66
2022-12-22T12:02:24.752Z,12.58
2022-12-22T12:07:31.702Z,12.58
2022-12-22T12:12:48.284Z,12.62
2022-12-22T12:18:27.647Z,12.71
2022-12-22T12:23:43.534Z,12.76
2022-12-22T12:29:04.962Z,12.77
2022-12-22T12:34:12.435Z,12.76
2022-12-22T12:39:18.579Z,12.73
2022-12-22T12:44:24.868Z,12.77
2022-12-22T12:49:35.102Z,12.83
2022-12-22T12:54:47.442Z,12.96
2022-12-22T12:59:50.323Z,12.92
2022-12-22T13:05:13.062Z,12.93
2022-12-22T13:10:24.779Z,12.86
2022-12-22T13:15:38.096Z,12.86
2022-12-22T13:20:39.599Z,12.92
2022-12-22T13:25:48.434Z,13.13
2022-12-22T13:31:15.963Z,13.28
2022-12-22T13:36:26.052Z,13.47
2022-12-22T13:41:28.700Z,13.48
2022-12-22T13:46:32.878Z,13.38
2022-12-22T13:51:37.473Z,13.21
2022-12-22T13:56:49.540Z,13.17
2022-12-22T14:01:56.151Z,12.98
2022-12-22T14:06:57.656Z,12.93
2022-12-22T14:12:02.562Z,12.82
2022-12-22T14:17:04.850Z,12.67
2022-12-22T14:22:14.905Z,12.63
2022-12-22T14:27:30.395Z,12.64
2022-12-22T14:32:52.448Z,12.54
2022-12-22T14:38:16.101Z,12.45
2022-12-22T14:43:17.427Z,12.46
2022-12-22T14:48:30.374Z,12.41
2022-12-22T14:53:42.901Z,12.34
2022-12-22T14:58:46.496Z,12.33
2022-12-22T15:04:15.055Z,12.32
2022-12-22T15:09:16.399Z,12.29
2022-12-22T15:14:36.647Z,12.37
2022-12-22T15:19:39.753Z,12.35
2022-12-22T15:24:41.084Z,12.35
2022-12-22T15:29:42.482Z,12.18
2022-12-22T15:34:43.838Z,12.13
2022-12-22T15:39:45.191Z,12.02
2022-12-22T15:44:46.588Z,11.90
2022-12-22T15:49:47.944Z,11.92
2022-12-22T15:54:49.302Z,11.90
2022-12-22T15:59:50.647Z,11.88
2022-12-22T16:04:52.039Z,11.90
2022-12-22T16:09:53.472Z,11.83
2022-12-22T16:14:58.726Z,11.74
2022-12-22T16:20:00.420Z,11.71
2022-12-22T16:25:05.186Z,11.70
2022-12-22T16:30:11.855Z,11.42
2022-12-22T16:35:13.883Z,11.34
2022-12-22T16:40:16.876Z,11.25
2022-12-22T16:45:22.226Z,11.19
2022-12-22T16:50:32.398Z,11.13
2022-12-22T16:55:35.737Z,11.03
2022-12-22T17:00:39.385Z,10.95
2022-12-22T17:05:50.368Z,10.90
2022-12-22T17:10:54.175Z,10.88
2022-12-22T17:15:55.569Z,10.93
2022-12-22T17:20:59.685Z,10.94
2022-12-22T17:26:05.725Z,10.93
2022-12-22T17:31:07.348Z,10.97
2022-12-22T17:36:31.777Z,11.05
2022-12-22T17:41:33.369Z,11.05
2022-12-22T17:46:35.013Z,11.02
2022-12-22T17:51:37.452Z,11.08
2022-12-22T17:56:39.173Z,11.04
2022-12-22T18:01:40.778Z,11.09
2022-12-22T18:06:42.632Z,11.07
2022-12-22T18:11:46.174Z,11.08
2022-12-22T18:16:47.805Z,11.07
2022-12-22T18:21:49.260Z,11.10
2022-12-22T18:26:50.721Z,11.18
2022-12-22T18:31:52.284Z,11.18
2022-12-22T18:36:53.709Z,11.17
2022-12-22T18:41:55.983Z,11.25
2022-12-22T18:46:57.364Z,11.21
2022-12-22T18:51:58.708Z,11.18
2022-12-22T18:57:00.059Z,11.17
2022-12-22T19:02:19.222Z,11.24
2022-12-22T19:07:23.641Z,11.22
2022-12-22T19:12:27.695Z,11.14
2022-12-22T19:22:45.587Z,11.15
2022-12-22T19:27:50.044Z,11.18
2022-12-22T19:33:00.796Z,11.15
2022-12-22T19:38:03.408Z,11.26
2022-12-22T19:43:04.831Z,11.23
2022-12-22T19:48:16.581Z,11.27
2022-12-22T19:53:18.679Z,11.25
2022-12-22T19:58:23.695Z,11.21
2022-12-22T20:03:26.120Z,11.19
2022-12-22T20:08:27.675Z,11.11
2022-12-22T20:13:35.140Z,11.01
2022-12-22T20:18:36.505Z,10.98
2022-12-22T20:23:39.211Z,10.92
2022-12-22T20:28:40.716Z,10.89
2022-12-22T20:33:42.257Z,10.91
2022-12-22T20:38:44.518Z,10.96
2022-12-22T20:43:46.148Z,10.95
2022-12-22T20:48:56.105Z,10.97
2022-12-22T20:53:58.391Z,10.99
2022-12-22T20:59:06.874Z,11.00
2022-12-22T21:04:08.549Z,10.98
2022-12-22T21:09:12.512Z,11.04
2022-12-22T21:14:14.406Z,11.01
2022-12-22T21:19:18.423Z,11.01
2022-12-22T21:24:20.074Z,11.03
2022-12-22T21:29:26.113Z,11.06
2022-12-22T21:34:27.531Z,11.10
2022-12-22T21:39:36.877Z,11.08
2022-12-22T21:44:38.255Z,11.13
2022-12-22T21:49:39.624Z,11.14
2022-12-22T21:54:40.979Z,11.17
2022-12-22T21:59:42.304Z,11.17
2022-12-22T22:04:49.950Z,11.14
2022-12-22T22:09:55.303Z,11.12
2022-12-22T22:14:56.711Z,11.13
2022-12-22T22:19:58.081Z,11.14
2022-12-22T22:24:59.397Z,11.19
2022-12-22T22:30:00.769Z,11.10
2022-12-22T22:35:02.125Z,11.14
2022-12-22T22:40:03.772Z,11.08
2022-12-22T22:45:06.516Z,11.13
2022-12-22T22:50:08.841Z,11.12
2022-12-22T22:55:12.539Z,11.09
2022-12-22T23:00:16.580Z,11.09
2022-12-22T23:05:22.652Z,11.12
2022-12-22T23:10:24.522Z,11.11
2022-12-22T23:15:25.916Z,11.12
2022-12-22T23:20:28.418Z,11.15
2022-12-22T23:25:29.747Z,11.22
2022-12-22T23:30:31.064Z,11.16
2022-12-22T23:35:36.115Z,11.14
2022-12-22T23:40:52.283Z,11.12
2022-12-22T23:45:55.212Z,11.20
2022-12-22T23:50:57.623Z,11.17
2022-12-22T23:55:58.959Z,11.20
